Time;durP1;ratioP1;P1;durP2;ratioP2;P2;SDS_P1;SDS_P2;PMS_P1;PMS_P2;Temp;Humidity;BMP_temperature;BMP_pressure;BME280_temperature;BME280_humidity;BME280_pressure;Samples;Min_cycle;Max_cycle;Signal;HPM_P1;HPM_P2
2022/03/16 00:01:03;;;;;;;65.10;38.28;;;7.20;99.90;;;;;;5075148;28;20588;-69
2022/03/16 00:03:29;;;;;;;66.88;40.15;;;7.20;99.90;;;;;;5075122;28;20227;-68
2022/03/16 00:05:56;;;;;;;64.65;38.65;;;7.20;99.90;;;;;;5074288;28;20719;-68
2022/03/16 00:08:22;;;;;;;62.78;39.65;;;7.30;99.90;;;;;;5075069;28;20529;-68
2022/03/16 00:10:49;;;;;;;65.72;40.88;;;7.20;99.90;;;;;;5075981;28;20195;-68
2022/03/16 00:13:15;;;;;;;69.45;41.70;;;7.20;99.90;;;;;;5075688;28;20593;-69
2022/03/16 00:15:41;;;;;;;68.97;41.75;;;7.20;99.90;;;;;;5075009;28;20250;-68
2022/03/16 00:18:08;;;;;;;69.00;41.40;;;7.30;99.90;;;;;;5075642;28;20659;-68
2022/03/16 00:20:34;;;;;;;62.08;38.88;;;7.20;99.90;;;;;;5075947;28;20200;-68
2022/03/16 00:23:01;;;;;;;70.57;41.47;;;7.20;99.90;;;;;;5075557;28;20223;-68
2022/03/16 00:25:27;;;;;;;70.82;42.45;;;7.20;99.90;;;;;;5075698;28;20214;-68
2022/03/16 00:27:53;;;;;;;67.82;39.25;;;7.20;99.90;;;;;;5074726;28;20200;-68
2022/03/16 00:30:20;;;;;;;71.75;43.67;;;7.20;99.90;;;;;;5074642;28;20202;-68
2022/03/16 00:32:46;;;;;;;70.28;42.85;;;7.20;99.90;;;;;;5074941;28;20663;-69
2022/03/16 00:35:13;;;;;;;64.78;40.97;;;7.20;99.90;;;;;;5073994;28;20208;-68
2022/03/16 00:37:39;;;;;;;67.43;43.58;;;7.20;99.90;;;;;;5075496;28;20223;-68
2022/03/16 00:40:09;;;;;;;81.95;43.90;;;7.20;99.90;;;;;;5075409;28;20258;-68
2022/03/16 00:42:35;;;;;;;81.72;45.35;;;7.10;99.90;;;;;;5074766;28;20223;-68
2022/03/16 00:45:02;;;;;;;66.60;42.80;;;7.20;99.90;;;;;;5074972;28;20610;-68
2022/03/16 00:47:28;;;;;;;77.18;44.20;;;7.10;99.90;;;;;;5073731;28;20249;-69
2022/03/16 00:49:55;;;;;;;72.80;43.80;;;7.10;99.90;;;;;;5075177;28;20202;-69
2022/03/16 00:52:21;;;;;;;71.78;44.63;;;7.10;99.90;;;;;;5074863;28;20199;-68
2022/03/16 00:54:47;;;;;;;71.03;42.53;;;7.10;99.90;;;;;;5074559;28;20215;-68
2022/03/16 00:57:14;;;;;;;65.05;42.65;;;7.10;99.90;;;;;;5074900;28;20196;-68
2022/03/16 00:59:40;;;;;;;71.53;45.40;;;7.10;99.90;;;;;;5074960;28;20200;-69
2022/03/16 01:02:07;;;;;;;74.35;43.03;;;7.20;99.90;;;;;;5075004;28;20200;-68
2022/03/16 01:04:33;;;;;;;70.38;45.03;;;7.20;99.90;;;;;;5073726;28;20265;-68
2022/03/16 01:07:00;;;;;;;74.22;45.28;;;7.20;99.90;;;;;;5072698;28;20231;-69
2022/03/16 01:09:26;;;;;;;71.32;40.47;;;7.10;99.90;;;;;;5074317;28;20208;-68
2022/03/16 01:11:52;;;;;;;71.25;43.88;;;7.10;99.90;;;;;;5074310;28;20211;-68
2022/03/16 01:14:19;;;;;;;66.85;44.35;;;7.10;99.90;;;;;;5074587;28;20540;-69
2022/03/16 01:16:46;;;;;;;69.72;44.00;;;7.20;99.90;;;;;;5074167;28;20706;-68
2022/03/16 01:19:14;;;;;;;67.63;40.58;;;7.20;99.90;;;;;;5074163;28;20675;-68
2022/03/16 01:21:42;;;;;;;69.82;42.65;;;7.20;99.90;;;;;;5074599;28;20208;-69
2022/03/16 01:24:08;;;;;;;77.07;45.42;;;7.10;99.90;;;;;;5073658;28;20611;-68
2022/03/16 01:26:35;;;;;;;78.30;45.67;;;7.10;99.90;;;;;;5074320;28;20200;-68
2022/03/16 01:29:01;;;;;;;62.88;40.63;;;7.10;99.90;;;;;;5074502;28;20199;-68
2022/03/16 01:31:28;;;;;;;72.25;43.17;;;7.10;99.90;;;;;;5073028;28;20622;-68
2022/03/16 01:33:54;;;;;;;71.45;44.97;;;7.10;99.90;;;;;;5074322;28;20204;-68
2022/03/16 01:36:21;;;;;;;70.18;42.90;;;7.10;99.90;;;;;;5073772;28;20207;-68
2022/03/16 01:38:48;;;;;;;69.88;43.72;;;7.10;99.90;;;;;;5074010;28;20207;-68
2022/03/16 01:41:17;;;;;;;78.45;46.53;;;7.10;99.90;;;;;;5074413;28;20203;-68
2022/03/16 01:43:43;;;;;;;75.05;44.65;;;7.20;99.90;;;;;;5074307;28;20223;-69
2022/03/16 01:46:10;;;;;;;73.95;43.58;;;7.20;99.90;;;;;;5073969;28;20252;-69
2022/03/16 01:48:36;;;;;;;77.38;42.25;;;7.20;99.90;;;;;;5073584;28;20579;-68
2022/03/16 01:51:03;;;;;;;67.63;43.45;;;7.10;99.90;;;;;;5073798;28;20260;-68
2022/03/16 01:53:30;;;;;;;77.00;45.00;;;7.10;99.90;;;;;;5073629;28;20655;-68
2022/03/16 01:55:56;;;;;;;79.25;44.20;;;7.20;99.90;;;;;;5074068;28;20215;-68
2022/03/16 01:58:23;;;;;;;74.07;44.90;;;7.10;99.90;;;;;;5073972;28;20321;-69
2022/03/16 02:00:51;;;;;;;69.25;44.13;;;7.10;99.90;;;;;;5072556;28;20216;-70
2022/03/16 02:03:17;;;;;;;74.30;43.28;;;7.00;99.90;;;;;;5074472;28;20223;-70
2022/03/16 02:05:44;;;;;;;78.05;45.55;;;6.90;99.90;;;;;;5073848;28;20594;-70
2022/03/16 02:08:10;;;;;;;75.45;45.67;;;7.00;99.90;;;;;;5074038;28;20177;-70
2022/03/16 02:10:39;;;;;;;78.47;46.20;;;7.00;99.90;;;;;;5073913;28;20206;-70
2022/03/16 02:13:09;;;;;;;73.80;44.58;;;6.90;99.90;;;;;;5074198;28;20216;-71
2022/03/16 02:15:36;;;;;;;74.28;44.17;;;7.00;99.90;;;;;;5074188;28;20672;-68
2022/03/16 02:18:02;;;;;;;70.97;45.05;;;7.00;99.90;;;;;;5056865;28;20208;-71
2022/03/16 02:20:29;;;;;;;71.20;43.20;;;7.00;99.90;;;;;;5075313;28;20204;-69
2022/03/16 02:23:00;;;;;;;80.43;46.72;;;7.00;99.90;;;;;;5073667;28;20223;-68
2022/03/16 02:25:28;;;;;;;71.88;45.30;;;6.90;99.90;;;;;;5073412;28;20212;-69
2022/03/16 02:27:56;;;;;;;76.40;45.75;;;7.00;99.90;;;;;;5072996;28;20643;-70
2022/03/16 02:30:25;;;;;;;74.10;45.92;;;6.90;99.90;;;;;;5075902;28;20203;-69
2022/03/16 02:32:52;;;;;;;85.22;47.00;;;6.90;99.90;;;;;;5076800;28;20203;-69
2022/03/16 02:35:18;;;;;;;78.97;46.83;;;6.80;99.90;;;;;;5077496;28;20188;-69
2022/03/16 02:37:45;;;;;;;78.97;46.60;;;6.80;99.90;;;;;;5076955;28;20203;-69
2022/03/16 02:40:20;;;;;;;86.53;50.28;;;6.80;99.90;;;;;;5078228;28;20200;-69
2022/03/16 02:42:47;;;;;;;82.63;48.60;;;6.80;99.90;;;;;;5077723;28;20230;-69
2022/03/16 02:45:14;;;;;;;84.55;48.53;;;6.80;99.90;;;;;;5076290;28;20211;-69
2022/03/16 02:47:40;;;;;;;92.60;51.38;;;6.80;99.90;;;;;;5078202;28;20199;-69
2022/03/16 02:50:08;;;;;;;85.25;49.15;;;6.80;99.90;;;;;;5078331;28;20207;-69
2022/03/16 02:52:35;;;;;;;85.80;49.17;;;6.90;99.90;;;;;;5078116;28;20249;-69
2022/03/16 02:55:03;;;;;;;90.03;49.30;;;6.90;99.90;;;;;;5077982;28;20741;-69
2022/03/16 02:57:29;;;;;;;92.47;50.10;;;6.90;99.90;;;;;;5077670;28;20250;-69
2022/03/16 02:59:55;;;;;;;89.47;51.10;;;6.90;99.90;;;;;;5077581;28;20188;-71
2022/03/16 03:02:22;;;;;;;92.55;49.28;;;6.80;99.90;;;;;;5077489;28;20204;-69
2022/03/16 03:04:49;;;;;;;89.45;51.13;;;6.90;99.90;;;;;;5077774;28;20216;-69
2022/03/16 03:07:15;;;;;;;92.00;47.72;;;6.90;99.90;;;;;;5078119;28;20235;-69
2022/03/16 03:09:41;;;;;;;87.78;51.05;;;6.90;99.90;;;;;;5077517;28;20296;-69
2022/03/16 03:12:08;;;;;;;81.90;48.00;;;6.90;99.90;;;;;;5076948;28;20196;-69
2022/03/16 03:14:35;;;;;;;90.47;49.03;;;6.90;99.90;;;;;;5077680;28;20200;-69
2022/03/16 03:17:02;;;;;;;85.88;50.45;;;6.90;99.90;;;;;;5077768;28;20204;-69
2022/03/16 03:19:28;;;;;;;87.45;48.50;;;6.90;99.90;;;;;;5077480;28;20565;-69
2022/03/16 03:21:55;;;;;;;88.28;47.17;;;6.90;99.90;;;;;;5077091;28;20199;-69
2022/03/16 03:24:22;;;;;;;80.40;47.42;;;6.90;99.90;;;;;;5076499;28;20266;-69
2022/03/16 03:26:48;;;;;;;93.85;49.53;;;6.80;99.90;;;;;;5076557;28;20326;-70
2022/03/16 03:29:15;;;;;;;90.85;48.38;;;6.80;99.90;;;;;;5076341;28;20796;-69
2022/03/16 03:31:42;;;;;;;86.93;47.85;;;6.80;99.90;;;;;;5076629;28;20711;-69
2022/03/16 03:34:09;;;;;;;90.40;50.55;;;6.80;99.90;;;;;;5076920;28;20219;-69
2022/03/16 03:36:35;;;;;;;84.78;47.10;;;6.80;99.90;;;;;;5076459;28;20580;-69
2022/03/16 03:39:03;;;;;;;85.47;48.20;;;6.80;99.90;;;;;;5076905;28;20655;-69
2022/03/16 03:41:29;;;;;;;83.47;46.78;;;6.80;99.90;;;;;;5076578;28;20203;-70
2022/03/16 03:43:55;;;;;;;89.15;47.75;;;6.90;99.90;;;;;;5076968;28;20223;-69
2022/03/16 03:46:22;;;;;;;89.72;49.15;;;6.80;99.90;;;;;;5076665;28;20605;-69
2022/03/16 03:48:48;;;;;;;85.10;49.08;;;6.70;99.90;;;;;;5076584;28;20277;-70
2022/03/16 03:51:15;;;;;;;87.70;46.10;;;6.70;99.90;;;;;;5075623;28;20652;-69
2022/03/16 03:53:41;;;;;;;92.38;50.47;;;6.60;99.90;;;;;;5076361;28;20204;-69
2022/03/16 03:56:07;;;;;;;88.93;48.95;;;6.70;99.90;;;;;;5076645;28;20612;-69
2022/03/16 03:58:35;;;;;;;97.70;48.95;;;6.60;99.90;;;;;;5076501;28;20551;-69
2022/03/16 04:01:03;;;;;;;92.13;47.45;;;6.60;99.90;;;;;;5076077;28;20206;-69
2022/03/16 04:03:30;;;;;;;90.78;47.33;;;6.60;99.90;;;;;;5076237;28;20231;-69
2022/03/16 04:05:56;;;;;;;109.20;50.72;;;6.50;99.90;;;;;;5075984;28;20598;-69
2022/03/16 04:08:23;;;;;;;91.00;48.50;;;6.50;99.90;;;;;;5076379;28;20185;-69
2022/03/16 04:10:49;;;;;;;88.13;47.42;;;6.50;99.90;;;;;;5076239;28;20204;-70
2022/03/16 04:13:15;;;;;;;96.68;49.30;;;6.50;99.90;;;;;;5076683;28;20212;-69
2022/03/16 04:15:42;;;;;;;94.60;46.25;;;6.60;99.90;;;;;;5076073;28;20605;-69
2022/03/16 04:18:08;;;;;;;97.97;49.08;;;6.60;99.90;;;;;;5074898;28;20571;-69
2022/03/16 04:20:34;;;;;;;97.32;46.25;;;6.50;99.90;;;;;;5075994;28;20268;-70
2022/03/16 04:23:01;;;;;;;86.30;47.20;;;6.50;99.90;;;;;;5074463;28;20602;-69
2022/03/16 04:25:27;;;;;;;86.15;46.08;;;6.50;99.90;;;;;;5075923;28;20237;-69
2022/03/16 04:27:54;;;;;;;93.90;48.70;;;6.50;99.90;;;;;;5075366;28;20204;-69
2022/03/16 04:30:20;;;;;;;86.35;45.80;;;6.50;99.90;;;;;;5075880;28;20210;-70
2022/03/16 04:32:52;;;;;;;88.53;45.97;;;6.50;99.90;;;;;;5075831;28;20678;-70
2022/03/16 04:35:20;;;;;;;82.85;44.80;;;6.50;99.90;;;;;;5077207;28;20200;-70
2022/03/16 04:37:47;;;;;;;82.90;44.63;;;6.40;99.90;;;;;;5076412;28;20211;-70
2022/03/16 04:40:14;;;;;;;88.10;46.72;;;6.40;99.90;;;;;;5076589;28;20268;-70
2022/03/16 04:42:40;;;;;;;81.03;44.83;;;6.40;99.90;;;;;;5075445;28;20211;-70
2022/03/16 04:45:07;;;;;;;89.68;47.25;;;6.40;99.90;;;;;;5077159;28;20224;-70
2022/03/16 04:47:34;;;;;;;77.43;46.13;;;6.40;99.90;;;;;;5076201;28;20672;-70
2022/03/16 04:50:00;;;;;;;86.13;45.47;;;6.30;99.90;;;;;;5075491;28;20628;-71
2022/03/16 04:52:27;;;;;;;75.43;43.55;;;6.30;99.90;;;;;;5074920;28;20203;-70
2022/03/16 04:54:54;;;;;;;76.28;43.45;;;6.30;99.90;;;;;;5075491;28;20215;-69
2022/03/16 04:57:20;;;;;;;76.55;41.70;;;6.30;99.90;;;;;;5076888;28;20208;-70
2022/03/16 04:59:46;;;;;;;79.53;42.58;;;6.30;99.90;;;;;;5075635;28;20211;-69
2022/03/16 05:02:13;;;;;;;74.97;41.95;;;6.30;99.90;;;;;;5074294;28;20256;-70
2022/03/16 05:04:39;;;;;;;78.95;43.80;;;6.30;99.90;;;;;;5076162;28;20234;-70
2022/03/16 05:07:05;;;;;;;84.10;44.47;;;6.30;99.90;;;;;;5075560;28;20235;-71
2022/03/16 05:09:32;;;;;;;72.28;40.10;;;6.30;99.90;;;;;;5076084;28;20596;-70
2022/03/16 05:11:58;;;;;;;76.80;40.53;;;6.30;99.90;;;;;;5075225;28;20273;-70
2022/03/16 05:14:25;;;;;;;81.43;43.35;;;6.30;99.90;;;;;;5075984;28;20204;-70
2022/03/16 05:16:51;;;;;;;71.63;42.38;;;6.30;99.90;;;;;;5075791;28;20207;-70
2022/03/16 05:19:17;;;;;;;62.50;38.45;;;6.40;99.90;;;;;;5075053;28;20214;-70
2022/03/16 05:21:44;;;;;;;72.15;38.45;;;6.30;99.90;;;;;;5074793;28;20208;-70
2022/03/16 05:24:10;;;;;;;64.05;37.80;;;6.30;99.90;;;;;;5075742;28;20523;-70
2022/03/16 05:26:36;;;;;;;63.40;37.67;;;6.30;99.90;;;;;;5074966;28;20289;-70
2022/03/16 05:29:05;;;;;;;72.13;39.85;;;6.30;99.90;;;;;;5074136;28;20196;-70
2022/03/16 05:31:31;;;;;;;67.18;38.35;;;6.20;99.90;;;;;;5074986;28;20656;-70
2022/03/16 05:33:58;;;;;;;59.20;36.05;;;6.20;99.90;;;;;;5075400;28;20200;-70
2022/03/16 05:36:24;;;;;;;65.65;37.83;;;6.20;99.90;;;;;;5075029;28;20204;-70
2022/03/16 05:38:50;;;;;;;60.55;36.33;;;6.20;99.90;;;;;;5074778;28;20195;-70
2022/03/16 05:41:17;;;;;;;58.90;36.00;;;6.20;99.90;;;;;;5075240;28;20351;-69
2022/03/16 05:43:43;;;;;;;58.28;36.58;;;6.20;99.90;;;;;;5074667;28;20220;-69
2022/03/16 05:46:10;;;;;;;53.85;34.00;;;6.20;99.90;;;;;;5075414;28;20195;-70
2022/03/16 05:48:36;;;;;;;53.67;34.33;;;6.10;99.90;;;;;;5075497;28;20192;-70
2022/03/16 05:51:02;;;;;;;64.10;36.15;;;6.10;99.90;;;;;;5074231;28;20195;-71
2022/03/16 05:53:29;;;;;;;55.00;34.88;;;6.10;99.90;;;;;;5074903;28;20561;-70
2022/03/16 05:55:55;;;;;;;60.70;36.15;;;6.10;99.90;;;;;;5075298;28;20199;-71
2022/03/16 05:58:21;;;;;;;53.88;34.85;;;6.10;99.90;;;;;;5075236;28;20203;-70
2022/03/16 06:00:47;;;;;;;53.55;33.50;;;6.10;99.90;;;;;;5075941;28;20196;-70
2022/03/16 06:03:14;;;;;;;58.33;37.85;;;6.10;99.90;;;;;;5073077;28;20196;-70
2022/03/16 06:05:40;;;;;;;54.92;34.45;;;6.10;99.90;;;;;;5075951;28;20223;-70
2022/03/16 06:08:06;;;;;;;50.17;34.95;;;6.10;99.90;;;;;;5078016;28;20248;-70
2022/03/16 06:10:32;;;;;;;52.55;34.50;;;6.10;99.90;;;;;;5078043;28;20587;-70
2022/03/16 06:13:00;;;;;;;49.85;34.10;;;6.10;99.90;;;;;;5078729;28;20602;-70
2022/03/16 06:15:29;;;;;;;53.40;35.75;;;6.10;99.90;;;;;;5078211;28;20210;-70
2022/03/16 06:17:57;;;;;;;52.67;34.75;;;6.20;99.90;;;;;;5077990;28;20565;-71
2022/03/16 06:20:24;;;;;;;49.78;32.28;;;6.10;99.90;;;;;;5078898;28;20222;-70
2022/03/16 06:22:50;;;;;;;51.85;34.47;;;6.20;99.90;;;;;;5079002;28;20220;-70
2022/03/16 06:25:17;;;;;;;50.00;33.33;;;6.20;99.90;;;;;;5079030;28;20223;-70
2022/03/16 06:27:43;;;;;;;49.92;33.85;;;6.20;99.90;;;;;;5078661;28;20191;-70
2022/03/16 06:30:10;;;;;;;48.83;31.92;;;6.30;99.90;;;;;;5078696;28;20203;-70
2022/03/16 06:32:37;;;;;;;47.38;32.05;;;6.30;99.90;;;;;;5077254;28;20203;-71
2022/03/16 06:35:05;;;;;;;48.97;33.58;;;6.30;99.90;;;;;;5078482;28;20257;-70
2022/03/16 06:37:32;;;;;;;50.15;33.17;;;6.40;99.90;;;;;;5078155;28;20699;-71
2022/03/16 06:39:59;;;;;;;53.45;33.88;;;6.40;99.90;;;;;;5078195;28;20208;-70
2022/03/16 06:42:25;;;;;;;47.35;32.15;;;6.30;99.90;;;;;;5079272;28;20773;-70
2022/03/16 06:44:52;;;;;;;45.00;31.17;;;6.40;99.90;;;;;;5080080;28;20216;-71
2022/03/16 06:47:18;;;;;;;46.17;30.48;;;6.40;99.90;;;;;;5078888;28;20207;-70
2022/03/16 06:49:45;;;;;;;46.15;32.47;;;6.40;99.90;;;;;;5079098;28;20200;-70
2022/03/16 06:52:12;;;;;;;44.78;30.25;;;6.40;99.90;;;;;;5081527;28;20566;-69
2022/03/16 06:54:38;;;;;;;42.28;29.58;;;6.40;99.90;;;;;;5079398;28;20257;-69
2022/03/16 06:57:05;;;;;;;42.47;29.65;;;6.50;99.90;;;;;;5079136;28;20206;-69
2022/03/16 06:59:31;;;;;;;46.47;31.20;;;6.50;99.90;;;;;;5078955;28;20624;-70
2022/03/16 07:01:58;;;;;;;44.85;29.67;;;6.60;99.90;;;;;;5078660;28;20606;-70
2022/03/16 07:04:24;;;;;;;39.70;28.75;;;6.60;99.90;;;;;;5077687;28;20215;-70
2022/03/16 07:06:51;;;;;;;45.22;29.25;;;6.50;99.90;;;;;;5077362;28;20691;-69
2022/03/16 07:09:17;;;;;;;43.20;31.17;;;6.60;99.90;;;;;;5078013;28;20196;-70
2022/03/16 07:11:44;;;;;;;40.72;28.60;;;6.60;99.90;;;;;;5076504;28;20199;-70
2022/03/16 07:16:55;;;;;;;42.85;30.88;;;6.60;99.90;;;;;;5075970;28;20187;-70
2022/03/16 07:19:21;;;;;;;41.35;28.00;;;6.60;99.90;;;;;;5076488;28;20206;-70
2022/03/16 07:21:48;;;;;;;44.17;27.75;;;6.60;99.90;;;;;;5076637;28;20227;-70
2022/03/16 07:24:15;;;;;;;42.08;27.48;;;6.60;99.90;;;;;;5076316;28;20720;-70
2022/03/16 07:26:42;;;;;;;41.17;27.40;;;6.70;99.90;;;;;;5076446;28;20674;-70
2022/03/16 07:29:09;;;;;;;40.42;28.27;;;6.70;99.90;;;;;;5076366;28;20274;-70
2022/03/16 07:31:35;;;;;;;40.67;28.10;;;6.60;99.90;;;;;;5076444;28;20674;-69
2022/03/16 07:34:02;;;;;;;37.38;26.73;;;6.60;99.90;;;;;;5077077;28;20855;-70
2022/03/16 07:36:28;;;;;;;36.03;27.35;;;6.60;99.90;;;;;;5076373;28;20214;-69
2022/03/16 07:38:55;;;;;;;37.40;27.05;;;6.70;99.90;;;;;;5076411;28;20214;-69
2022/03/16 07:41:21;;;;;;;37.25;25.67;;;6.70;99.90;;;;;;5076125;28;20211;-69
2022/03/16 07:43:48;;;;;;;36.72;26.80;;;6.80;99.90;;;;;;5075874;28;20212;-69
2022/03/16 07:46:14;;;;;;;36.15;24.00;;;6.80;99.90;;;;;;5076135;28;20249;-69
2022/03/16 07:48:43;;;;;;;39.33;27.85;;;6.80;99.90;;;;;;5076044;28;20562;-69
2022/03/16 07:51:09;;;;;;;35.45;26.58;;;6.90;99.90;;;;;;5076427;28;20221;-69
2022/03/16 07:53:36;;;;;;;34.60;24.10;;;7.00;99.90;;;;;;5076027;28;20248;-69
2022/03/16 07:56:02;;;;;;;35.42;26.00;;;7.00;99.90;;;;;;5075362;28;20472;-70
2022/03/16 07:58:29;;;;;;;34.50;26.10;;;7.00;99.90;;;;;;5073682;28;20211;-67
2022/03/16 08:00:55;;;;;;;38.00;26.90;;;7.10;99.90;;;;;;5076175;28;20207;-68
2022/03/16 08:03:22;;;;;;;32.67;25.63;;;7.10;99.90;;;;;;5076074;28;20204;-69
2022/03/16 08:05:48;;;;;;;35.03;25.95;;;7.20;99.90;;;;;;5073403;28;20251;-69
2022/03/16 08:08:15;;;;;;;34.45;25.08;;;7.10;99.90;;;;;;5076298;28;20207;-69
2022/03/16 08:10:41;;;;;;;37.67;25.42;;;7.20;99.90;;;;;;5076310;28;20196;-68
2022/03/16 08:13:07;;;;;;;37.58;25.88;;;7.20;99.90;;;;;;5076534;28;20256;-70
2022/03/16 08:15:34;;;;;;;38.38;28.42;;;7.20;99.90;;;;;;5076109;28;20199;-70
2022/03/16 08:18:01;;;;;;;35.28;25.50;;;7.30;99.90;;;;;;5076616;28;20206;-70
2022/03/16 08:20:27;;;;;;;29.40;24.20;;;7.50;99.90;;;;;;5076198;28;20207;-70
2022/03/16 08:22:57;;;;;;;28.60;22.73;;;7.60;99.90;;;;;;5076231;28;20215;-72
2022/03/16 08:25:24;;;;;;;32.72;25.80;;;7.60;99.90;;;;;;5076541;28;20280;-70
2022/03/16 08:27:50;;;;;;;31.95;25.05;;;7.70;99.90;;;;;;5073875;28;20207;-70
2022/03/16 08:30:17;;;;;;;32.17;24.35;;;7.70;99.90;;;;;;5075810;28;20220;-70
2022/03/16 08:32:44;;;;;;;30.90;24.10;;;7.80;99.90;;;;;;5075397;28;20664;-70
2022/03/16 08:35:11;;;;;;;33.85;24.30;;;7.80;99.90;;;;;;5075147;28;20199;-71
2022/03/16 08:37:38;;;;;;;36.22;24.85;;;7.90;99.90;;;;;;5075451;28;20229;-69
2022/03/16 08:40:05;;;;;;;30.83;23.02;;;7.80;99.90;;;;;;5074810;28;20199;-71
2022/03/16 08:42:32;;;;;;;32.25;22.45;;;7.90;99.90;;;;;;5074383;28;20208;-70
2022/03/16 08:44:58;;;;;;;31.13;23.42;;;8.00;99.90;;;;;;5074523;28;20231;-70
2022/03/16 08:47:25;;;;;;;33.33;24.90;;;8.10;99.90;;;;;;5074663;28;20654;-69
2022/03/16 08:49:54;;;;;;;33.25;25.70;;;8.20;99.90;;;;;;5074468;28;20652;-70
2022/03/16 08:52:22;;;;;;;33.45;25.48;;;8.20;99.90;;;;;;5073980;28;20614;-70
2022/03/16 08:54:50;;;;;;;32.28;24.98;;;8.10;99.90;;;;;;5074376;28;20208;-70
2022/03/16 08:57:16;;;;;;;39.67;27.17;;;8.30;99.90;;;;;;5075212;28;20211;-70
2022/03/16 08:59:43;;;;;;;34.38;26.23;;;8.40;99.90;;;;;;5074745;28;20208;-70
2022/03/16 09:02:10;;;;;;;31.92;24.25;;;8.50;99.90;;;;;;5073649;28;20234;-70
2022/03/16 09:04:37;;;;;;;34.22;25.00;;;8.70;99.90;;;;;;5074569;28;20387;-74
2022/03/16 09:07:03;;;;;;;30.40;24.17;;;8.50;99.90;;;;;;5074398;28;20691;-70
2022/03/16 09:09:30;;;;;;;30.42;23.10;;;8.50;99.90;;;;;;5074873;28;20215;-70
2022/03/16 09:11:57;;;;;;;34.08;23.05;;;8.50;99.90;;;;;;5075208;28;20207;-70
2022/03/16 09:14:24;;;;;;;29.73;24.45;;;8.60;99.90;;;;;;5075001;28;20211;-70
2022/03/16 09:16:51;;;;;;;36.70;25.88;;;8.70;99.90;;;;;;5073077;28;20601;-72
2022/03/16 09:19:20;;;;;;;30.42;23.58;;;8.70;99.90;;;;;;5074651;28;20215;-70
2022/03/16 09:21:48;;;;;;;35.33;24.40;;;8.80;99.90;;;;;;5074454;28;20686;-70
2022/03/16 09:24:16;;;;;;;30.85;23.58;;;8.90;99.90;;;;;;5074807;28;20621;-69
2022/03/16 09:26:42;;;;;;;31.92;22.70;;;9.00;99.90;;;;;;5074694;28;20211;-69
2022/03/16 09:29:10;;;;;;;33.40;24.85;;;9.00;99.90;;;;;;5074256;28;20261;-70
2022/03/16 09:31:40;;;;;;;33.45;24.95;;;9.10;99.90;;;;;;5074666;28;20252;-70
2022/03/16 09:34:09;;;;;;;28.77;22.25;;;9.20;99.90;;;;;;5072973;28;20204;-70
2022/03/16 09:36:37;;;;;;;32.80;23.58;;;9.30;99.90;;;;;;5074388;28;20272;-70
2022/03/16 09:39:04;;;;;;;30.35;23.80;;;9.40;99.90;;;;;;5073746;28;20217;-70
2022/03/16 09:41:31;;;;;;;27.42;21.88;;;9.60;99.90;;;;;;5073041;28;20207;-70
2022/03/16 09:44:00;;;;;;;33.28;24.02;;;9.70;99.90;;;;;;5073794;28;20207;-70
2022/03/16 09:46:31;;;;;;;34.33;24.15;;;9.50;99.90;;;;;;5073771;28;20223;-70
2022/03/16 09:48:58;;;;;;;30.70;22.92;;;9.60;99.90;;;;;;5073676;28;20204;-70
2022/03/16 09:51:25;;;;;;;33.30;22.30;;;9.80;99.90;;;;;;5073761;28;20227;-71
2022/03/16 09:53:55;;;;;;;31.08;24.02;;;9.90;99.90;;;;;;5074223;28;20200;-69
2022/03/16 09:56:21;;;;;;;36.97;24.67;;;9.90;99.90;;;;;;5073793;28;20208;-71
2022/03/16 09:58:49;;;;;;;30.20;22.85;;;10.00;99.90;;;;;;5073545;28;20204;-69
2022/03/16 10:01:15;;;;;;;28.95;21.63;;;10.00;99.90;;;;;;5072977;28;20204;-69
2022/03/16 10:03:48;;;;;;;32.20;23.95;;;10.10;99.90;;;;;;5073083;28;20256;-69
2022/03/16 10:06:16;;;;;;;28.50;20.92;;;10.20;99.90;;;;;;5072979;28;20231;-69
2022/03/16 10:13:13;;;;;;;29.52;22.67;;;10.40;99.90;;;;;;5073491;28;20211;-70
2022/03/16 10:14:18;;;;;;;33.33;23.00;;;10.60;99.90;;;;;;5073773;28;20184;-71
2022/03/16 10:19:53;;;;;;;22.83;19.80;;;10.70;99.90;;;;;;5073687;28;20196;-69
2022/03/16 10:22:28;;;;;;;35.85;23.60;;;10.70;99.90;;;;;;5072901;28;20200;-70
2022/03/16 10:25:02;;;;;;;25.95;20.95;;;10.90;99.90;;;;;;5073223;28;20284;-70
2022/03/16 10:27:29;;;;;;;24.42;19.70;;;10.90;99.90;;;;;;5072996;28;20217;-70
2022/03/16 10:29:56;;;;;;;24.45;20.23;;;10.90;99.90;;;;;;5072954;28;20279;-69
2022/03/16 10:32:23;;;;;;;26.73;21.20;;;11.10;99.90;;;;;;5072542;28;20207;-69
2022/03/16 10:34:55;;;;;;;26.45;21.13;;;11.40;99.90;;;;;;5072024;28;20656;-70
2022/03/16 10:37:23;;;;;;;29.90;21.92;;;11.30;99.90;;;;;;5073626;28;20206;-70
2022/03/16 10:39:52;;;;;;;29.92;22.13;;;11.50;99.90;;;;;;5073052;28;20203;-69
2022/03/16 10:47:58;;;;;;;27.83;22.10;;;11.50;99.90;;;;;;5073224;28;20188;-69
2022/03/16 10:50:24;;;;;;;27.13;20.95;;;11.50;99.90;;;;;;5072992;28;20196;-69
2022/03/16 10:52:52;;;;;;;28.25;22.30;;;11.90;99.90;;;;;;5075946;28;20196;-69
2022/03/16 10:55:20;;;;;;;26.95;20.85;;;11.60;99.90;;;;;;5076958;28;20549;-69
2022/03/16 10:57:50;;;;;;;25.02;20.38;;;11.70;99.90;;;;;;5077120;28;20205;-69
2022/03/16 11:00:17;;;;;;;28.60;21.20;;;11.90;99.90;;;;;;5076193;28;20184;-69
2022/03/16 11:02:50;;;;;;;24.48;19.58;;;12.00;99.90;;;;;;5077415;28;20248;-69
2022/03/16 11:05:18;;;;;;;26.10;20.02;;;11.70;99.90;;;;;;5076463;28;20578;-69
2022/03/16 11:07:48;;;;;;;22.73;20.05;;;11.80;99.90;;;;;;5077147;28;20214;-69
2022/03/16 11:10:16;;;;;;;26.50;19.75;;;11.70;99.90;;;;;;5076564;28;20643;-69
2022/03/16 11:15:31;;;;;;;25.75;19.70;;;12.00;99.90;;;;;;5076602;28;20546;-69
2022/03/16 11:17:57;;;;;;;26.75;20.60;;;11.90;99.90;;;;;;5076450;28;20211;-69
2022/03/16 11:20:25;;;;;;;27.42;20.58;;;11.70;99.90;;;;;;5074735;28;20199;-69
2022/03/16 11:26:14;;;;;;;25.65;21.38;;;11.90;99.90;;;;;;5075774;28;20233;-69
2022/03/16 11:28:46;;;;;;;22.67;20.17;;;11.90;99.90;;;;;;5075773;28;20184;-69
2022/03/16 11:31:14;;;;;;;25.48;20.70;;;12.00;99.90;;;;;;5075364;28;20642;-69
2022/03/16 11:33:51;;;;;;;28.42;20.75;;;12.10;99.90;;;;;;5075430;28;20576;-69
2022/03/16 11:36:37;;;;;;;28.23;21.65;;;12.20;99.90;;;;;;5076068;28;20215;-68
2022/03/16 11:39:20;;;;;;;24.92;19.13;;;12.60;99.90;;;;;;5076684;28;20184;-70
2022/03/16 11:41:52;;;;;;;22.10;19.37;;;13.20;99.90;;;;;;5076101;28;20207;-68
2022/03/16 11:44:25;;;;;;;24.00;19.30;;;13.40;99.90;;;;;;5077851;28;20597;-70
2022/03/16 11:46:53;;;;;;;23.57;19.30;;;13.30;99.90;;;;;;5075063;28;21050;-69
2022/03/16 11:49:30;;;;;;;24.07;20.57;;;12.80;99.90;;;;;;5075279;28;20585;-69
2022/03/16 11:51:58;;;;;;;22.13;19.40;;;12.60;99.90;;;;;;5077336;28;20544;-68
2022/03/16 11:54:45;;;;;;;23.23;20.60;;;12.50;99.90;;;;;;5075104;28;20200;-68
2022/03/16 11:57:13;;;;;;;24.45;20.50;;;12.30;99.90;;;;;;5074967;28;20192;-68
2022/03/16 11:59:44;;;;;;;24.73;20.33;;;12.40;99.90;;;;;;5075032;28;20200;-69
2022/03/16 12:02:20;;;;;;;30.15;21.42;;;12.40;99.90;;;;;;5075121;28;20607;-69
2022/03/16 12:04:48;;;;;;;24.57;19.93;;;12.50;99.90;;;;;;5074533;28;20340;-68
2022/03/16 12:07:19;;;;;;;23.47;20.40;;;12.50;99.90;;;;;;5074377;28;20628;-69
2022/03/16 12:09:47;;;;;;;22.43;19.90;;;12.50;99.90;;;;;;5074641;28;20636;-68
2022/03/16 12:15:20;;;;;;;25.90;19.55;;;12.70;99.90;;;;;;5074756;28;20549;-68
2022/03/16 12:17:52;;;;;;;41.10;30.57;;;12.80;99.90;;;;;;5074464;28;20635;-70
2022/03/16 12:20:24;;;;;;;24.97;19.63;;;13.00;99.90;;;;;;5074510;28;20597;-69
2022/03/16 12:23:12;;;;;;;30.05;22.08;;;13.10;99.90;;;;;;5074694;28;20601;-69
2022/03/16 12:25:40;;;;;;;23.50;20.23;;;13.00;99.90;;;;;;5074249;28;20701;-69
2022/03/16 12:30:58;;;;;;;29.00;19.57;;;13.10;99.90;;;;;;5074529;28;20553;-69
2022/03/16 12:33:28;;;;;;;26.57;19.30;;;13.30;99.90;;;;;;5074223;28;20570;-69
2022/03/16 12:36:00;;;;;;;29.57;20.77;;;13.50;99.90;;;;;;5074076;28;20585;-69
2022/03/16 12:38:31;;;;;;;26.70;21.97;;;13.30;99.90;;;;;;5074400;28;20702;-70
2022/03/16 12:43:45;;;;;;;30.93;21.27;;;13.60;99.90;;;;;;5073775;28;21120;-69
2022/03/16 12:46:32;;;;;;;24.27;20.90;;;13.80;99.90;;;;;;5073642;28;20650;-69
2022/03/16 12:49:12;;;;;;;22.87;20.10;;;13.50;99.90;;;;;;5074152;28;20602;-68
2022/03/16 12:51:46;;;;;;;24.00;21.05;;;13.50;99.90;;;;;;5073255;28;20715;-67
2022/03/16 12:54:25;;;;;;;23.90;20.80;;;13.50;99.90;;;;;;5074173;28;20260;-68
2022/03/16 12:57:05;;;;;;;25.20;22.50;;;13.50;99.90;;;;;;5073995;28;20593;-68
2022/03/16 12:59:37;;;;;;;24.43;20.07;;;13.90;99.90;;;;;;5074135;28;20622;-69
2022/03/16 13:02:10;;;;;;;30.00;22.40;;;13.90;99.90;;;;;;5073636;28;20630;-68
2022/03/16 13:04:37;;;;;;;22.93;20.40;;;13.70;99.90;;;;;;5073879;28;20579;-68
2022/03/16 13:07:05;;;;;;;26.77;20.93;;;13.70;99.90;;;;;;5073068;28;21224;-68